This is the latest recevied weather packets stored in our database for station/object W4MJZ-1. If no packets are shown the sender has not sent any weather packets the latest 10 day(s).
| Time | Temp. | Humidity | Pressure | Rain* | Wind** | Luminosity | Snow |
|---|---|---|---|---|---|---|---|
| 1777297655 | 14.44° C | 41% | 1021.5 hPa | 0 mm | - | - | - |
| 1777297441 | 14.44° C | 41% | 1021.5 hPa | 0 mm | - | - | - |
| 1777297327 | 14.44° C | 42% | 1021.5 hPa | 0 mm | - | - | - |
| 1777297140 | 14.44° C | 42% | 1021.5 hPa | 0 mm | - | - | - |
| 1777297012 | 13.33° C | 45% | 1021.1 hPa | 0 mm | - | - | - |
| 1777296879 | 12.22° C | 46% | 1021.5 hPa | 0 mm | - | - | - |
| 1777296840 | 13.33° C | 45% | 1021.1 hPa | 0 mm | - | - | - |
| 1777296609 | 11.67° C | 49% | 1021.5 hPa | 0 mm | - | - | - |
| 1777296540 | 12.22° C | 46% | 1021.5 hPa | 0 mm | - | - | - |
| 1777296241 | 11.67° C | 49% | 1021.5 hPa | 0 mm | - | - | - |
| 1777296189 | 10.56° C | 52% | 1021.1 hPa | 0 mm | - | - | - |
| 1777295951 | 10° C | 53% | 1021.5 hPa | 0 mm | - | - | - |
| 1777295940 | 10.56° C | 52% | 1021.1 hPa | 0 mm | - | - | - |
| 1777295641 | 10° C | 53% | 1021.5 hPa | 0 mm | - | - | - |
| 1777295592 | 9.44° C | 54% | 1021.5 hPa | 0 mm | - | - | - |
| 1777295379 | 9.44° C | 54% | 1021.5 hPa | 0 mm | - | - | - |
| 1777295340 | 9.44° C | 54% | 1021.5 hPa | 0 mm | - | - | - |
| 1777295316 | 9.44° C | 55% | 1021.5 hPa | 0 mm | - | - | - |
| 1777295040 | 9.44° C | 55% | 1021.5 hPa | 0 mm | - | - | - |
| 1777295016 | 8.89° C | 56% | 1021.5 hPa | 0 mm | - | - | - |
| 1777294742 | 8.89° C | 56% | 1021.5 hPa | 0 mm | - | - | - |
| 1777294714 | 8.33° C | 57% | 1021.1 hPa | 0 mm | - | - | - |
| 1777294455 | 8.33° C | 58% | 1021.1 hPa | 0 mm | - | - | - |
| 1777294440 | 8.33° C | 57% | 1021.1 hPa | 0 mm | - | - | - |
| 1777294140 | 8.33° C | 58% | 1021.1 hPa | 0 mm | - | - | - |
* Rain latest hour (hover to see other rain measurements)
** Current wind speed in m/s (hover to see current wind gust speed)